Time;durP1;ratioP1;P1;durP2;ratioP2;P2;SDS_P1;SDS_P2;PMS_P1;PMS_P2;Temp;Humidity;BMP_temperature;BMP_pressure;BME280_temperature;BME280_humidity;BME280_pressure;Samples;Min_cycle;Max_cycle;Signal;HPM_P1;HPM_P2
2022/08/06 00:00:54;;;;;;;7.57;1.70;;;10.80;99.90;;;;;;5054408;28;20029;-67
2022/08/06 00:03:20;;;;;;;11.43;2.08;;;10.80;99.90;;;;;;5055453;28;20024;-68
2022/08/06 00:05:46;;;;;;;12.65;1.88;;;10.80;99.90;;;;;;5055511;28;20021;-68
2022/08/06 00:08:11;;;;;;;8.20;1.90;;;10.90;99.90;;;;;;5055312;28;20017;-69
2022/08/06 00:10:37;;;;;;;9.32;1.70;;;10.80;99.90;;;;;;5054670;28;20025;-67
2022/08/06 00:13:02;;;;;;;4.28;1.88;;;10.80;99.90;;;;;;5055572;28;20384;-67
2022/08/06 00:15:28;;;;;;;11.88;2.15;;;10.80;99.90;;;;;;5054932;28;20461;-67
2022/08/06 00:17:54;;;;;;;5.55;2.33;;;10.80;99.90;;;;;;5055121;28;20481;-67
2022/08/06 00:20:19;;;;;;;7.47;1.83;;;10.80;99.90;;;;;;5053972;28;20496;-67
2022/08/06 00:22:45;;;;;;;7.93;2.20;;;10.80;99.90;;;;;;5055386;28;20032;-67
2022/08/06 00:25:10;;;;;;;6.07;1.77;;;10.80;99.90;;;;;;5053996;28;20057;-67
2022/08/06 00:27:37;;;;;;;3.85;1.77;;;10.80;99.90;;;;;;5054836;28;20037;-67
2022/08/06 00:30:04;;;;;;;5.40;1.40;;;10.80;99.90;;;;;;5055188;28;20089;-67
2022/08/06 00:32:30;;;;;;;6.10;1.83;;;10.80;99.90;;;;;;5053762;28;20435;-67
2022/08/06 00:34:55;;;;;;;5.80;1.52;;;10.80;99.90;;;;;;5054812;28;20163;-67
2022/08/06 00:37:21;;;;;;;4.30;1.60;;;10.70;99.90;;;;;;5054603;28;20031;-67
2022/08/06 00:39:47;;;;;;;5.03;1.50;;;10.70;99.90;;;;;;5054740;28;20381;-67
2022/08/06 00:42:12;;;;;;;5.40;1.40;;;10.70;99.90;;;;;;5053653;28;20025;-67
2022/08/06 00:44:38;;;;;;;4.22;1.33;;;10.70;99.90;;;;;;5054889;28;20461;-67
2022/08/06 00:47:04;;;;;;;9.25;1.45;;;10.50;99.90;;;;;;5054492;28;20017;-68
2022/08/06 00:49:29;;;;;;;4.15;1.23;;;10.40;99.90;;;;;;5054987;28;20428;-68
2022/08/06 00:51:55;;;;;;;5.05;1.30;;;10.20;99.90;;;;;;5053542;28;20481;-69
2022/08/06 00:54:21;;;;;;;2.88;1.00;;;10.00;99.90;;;;;;5036618;28;20033;-67
2022/08/06 00:56:46;;;;;;;2.85;1.13;;;9.80;99.90;;;;;;5054561;28;20025;-67
2022/08/06 00:59:12;;;;;;;6.68;1.25;;;9.70;99.90;;;;;;5054597;28;20037;-67
2022/08/06 01:01:37;;;;;;;3.42;1.23;;;9.60;99.90;;;;;;5053320;28;20025;-67
2022/08/06 01:04:03;;;;;;;12.13;1.30;;;9.60;99.90;;;;;;5053501;28;20102;-67
2022/08/06 01:06:29;;;;;;;4.72;1.23;;;9.60;99.90;;;;;;5054435;28;20025;-67
2022/08/06 01:08:55;;;;;;;3.97;1.20;;;9.60;99.90;;;;;;5054223;28;20033;-67
2022/08/06 01:11:20;;;;;;;6.40;1.73;;;9.60;99.90;;;;;;5053436;28;20025;-67
2022/08/06 01:13:46;;;;;;;2.90;1.58;;;9.60;99.90;;;;;;5054928;28;20023;-67
2022/08/06 01:16:46;;;;;;;3.13;1.27;;;9.60;99.90;;;;;;5053932;28;20108;-67
2022/08/06 01:19:41;;;;;;;2.88;1.00;;;9.70;99.90;;;;;;5053976;28;20090;-67
2022/08/06 01:22:37;;;;;;;4.55;1.73;;;9.80;99.90;;;;;;5052995;28;20021;-67
2022/08/06 01:25:46;;;;;;;1.77;1.13;;;9.90;99.90;;;;;;5053952;28;20040;-67
2022/08/06 01:28:24;;;;;;;1.70;1.02;;;9.90;99.90;;;;;;5092674;23;20045;-67
2022/08/06 01:30:56;;;;;;;4.82;1.27;;;9.90;99.90;;;;;;5052560;28;20040;-67
2022/08/06 01:33:33;;;;;;;2.85;1.52;;;10.10;99.90;;;;;;5036041;28;20063;-67
2022/08/06 01:36:03;;;;;;;3.67;1.20;;;10.10;99.90;;;;;;5053862;28;20036;-67
2022/08/06 01:38:38;;;;;;;7.75;1.27;;;10.20;99.90;;;;;;5053982;28;20035;-67
2022/08/06 01:41:09;;;;;;;4.78;1.30;;;10.20;99.90;;;;;;5052970;28;20052;-67
2022/08/06 01:43:36;;;;;;;5.68;1.73;;;10.20;99.90;;;;;;5054109;28;20491;-69
2022/08/06 01:46:03;;;;;;;6.95;1.88;;;10.30;99.90;;;;;;5035777;28;20036;-69
2022/08/06 01:48:31;;;;;;;7.55;2.03;;;10.50;99.90;;;;;;5053653;28;20021;-69
2022/08/06 01:50:59;;;;;;;6.47;1.58;;;10.50;99.90;;;;;;5052743;28;20064;-69
2022/08/06 01:53:38;;;;;;;4.82;1.40;;;10.40;99.90;;;;;;5053571;28;20515;-69
2022/08/06 01:56:06;;;;;;;5.40;1.42;;;10.40;99.90;;;;;;5053535;28;20035;-69
2022/08/06 01:58:39;;;;;;;2.13;1.20;;;10.30;99.90;;;;;;5052412;28;20033;-69
2022/08/06 02:01:08;;;;;;;7.18;1.73;;;10.20;99.90;;;;;;5052452;28;20028;-69
2022/08/06 02:03:41;;;;;;;4.50;1.20;;;10.20;99.90;;;;;;5052062;28;20029;-67
2022/08/06 02:06:08;;;;;;;2.28;1.30;;;10.20;99.90;;;;;;5053810;28;20029;-67
2022/08/06 02:08:37;;;;;;;2.30;1.20;;;10.20;99.90;;;;;;5053280;28;20033;-67
2022/08/06 02:11:05;;;;;;;2.92;1.50;;;10.10;99.90;;;;;;5052484;28;20028;-67
2022/08/06 02:13:32;;;;;;;2.42;1.55;;;9.90;99.90;;;;;;5053342;28;20025;-69
2022/08/06 02:16:00;;;;;;;3.35;1.33;;;9.80;99.90;;;;;;5053323;28;20025;-69
2022/08/06 02:18:31;;;;;;;5.22;1.15;;;9.70;99.90;;;;;;5053358;28;20029;-69
2022/08/06 02:21:00;;;;;;;2.88;1.20;;;9.70;99.90;;;;;;5052490;28;20540;-69
2022/08/06 02:23:28;;;;;;;3.08;1.20;;;9.60;99.90;;;;;;5053316;28;20029;-69
2022/08/06 02:25:55;;;;;;;2.35;1.50;;;9.60;99.90;;;;;;5035984;28;20473;-69
2022/08/06 02:28:23;;;;;;;3.80;1.50;;;9.50;99.90;;;;;;5053112;28;20045;-69
2022/08/06 02:30:53;;;;;;;4.03;1.13;;;9.30;99.90;;;;;;5034824;28;20442;-69
2022/08/06 02:33:19;;;;;;;2.33;1.40;;;9.20;99.90;;;;;;5053781;28;20029;-69
2022/08/06 02:36:08;;;;;;;2.30;0.98;;;9.10;99.90;;;;;;5053121;28;20048;-69
2022/08/06 02:38:36;;;;;;;3.22;1.55;;;9.00;99.90;;;;;;5033154;28;20021;-69
2022/08/06 02:41:16;;;;;;;3.78;1.30;;;8.90;99.90;;;;;;5037731;28;20468;-69
2022/08/06 02:43:49;;;;;;;3.75;0.90;;;8.80;99.90;;;;;;5053136;28;20538;-69
2022/08/06 02:46:28;;;;;;;4.60;1.27;;;8.80;99.90;;;;;;5053461;28;20025;-69
2022/08/06 02:49:14;;;;;;;3.85;1.30;;;8.70;99.90;;;;;;5054466;28;20025;-69
2022/08/06 02:51:50;;;;;;;1.98;1.38;;;8.60;99.90;;;;;;5055847;28;20025;-69
2022/08/06 02:54:26;;;;;;;3.97;1.10;;;8.50;99.90;;;;;;5057209;28;20561;-69
2022/08/06 02:56:58;;;;;;;6.30;1.58;;;8.50;99.90;;;;;;5056793;28;20099;-69
2022/08/06 02:59:28;;;;;;;2.55;1.40;;;8.50;99.90;;;;;;5057019;28;20044;-69
2022/08/06 03:02:00;;;;;;;2.10;1.30;;;8.60;99.90;;;;;;5037608;28;20025;-69
2022/08/06 03:04:29;;;;;;;4.82;1.50;;;8.70;99.90;;;;;;5056991;28;20381;-69
2022/08/06 03:06:58;;;;;;;2.50;1.27;;;8.70;99.90;;;;;;5056523;28;20021;-69
2022/08/06 03:09:24;;;;;;;5.88;1.60;;;8.80;99.90;;;;;;5056550;28;20482;-69
2022/08/06 03:11:51;;;;;;;4.07;1.50;;;8.90;99.90;;;;;;5055655;28;20048;-68
2022/08/06 03:14:19;;;;;;;6.90;1.67;;;8.80;99.90;;;;;;5056452;28;20040;-68
2022/08/06 03:16:46;;;;;;;5.75;1.50;;;8.80;99.90;;;;;;5056931;28;20091;-68
2022/08/06 03:19:13;;;;;;;5.20;1.65;;;8.70;99.90;;;;;;5056314;28;20039;-69
2022/08/06 03:21:41;;;;;;;1.50;1.25;;;8.60;99.90;;;;;;5056313;28;20032;-69
2022/08/06 03:24:07;;;;;;;4.05;1.50;;;8.60;99.90;;;;;;5037672;28;20032;-69
2022/08/06 03:26:35;;;;;;;4.38;1.17;;;8.40;99.90;;;;;;5056042;28;20018;-69
2022/08/06 03:29:02;;;;;;;3.63;1.85;;;8.40;99.90;;;;;;5056800;28;20112;-69
2022/08/06 03:31:30;;;;;;;6.00;1.52;;;8.30;99.90;;;;;;5056130;28;20025;-69
2022/08/06 03:33:56;;;;;;;6.28;1.52;;;8.30;99.90;;;;;;5056094;28;20380;-69
2022/08/06 03:36:23;;;;;;;4.03;1.48;;;8.20;99.90;;;;;;5055988;28;20021;-69
2022/08/06 03:39:10;;;;;;;2.13;1.50;;;8.10;99.90;;;;;;5054988;28;20029;-69
2022/08/06 03:41:38;;;;;;;1.88;1.45;;;8.10;99.90;;;;;;5056155;28;20599;-69
2022/08/06 03:44:04;;;;;;;3.33;1.88;;;8.10;99.90;;;;;;5055964;28;20380;-69
2022/08/06 03:46:32;;;;;;;4.53;1.80;;;8.00;99.90;;;;;;5055791;28;20117;-69
2022/08/06 03:49:01;;;;;;;6.03;2.03;;;8.00;99.90;;;;;;5056171;28;20465;-69
2022/08/06 03:51:28;;;;;;;2.97;1.55;;;8.00;99.90;;;;;;5055756;28;20497;-69
2022/08/06 03:53:57;;;;;;;8.30;2.55;;;8.00;99.90;;;;;;5055057;28;20055;-69
2022/08/06 03:56:26;;;;;;;4.03;1.75;;;8.00;99.90;;;;;;5055011;28;20017;-69
2022/08/06 03:58:53;;;;;;;5.47;1.73;;;8.00;99.90;;;;;;5055427;28;20052;-69
2022/08/06 04:01:23;;;;;;;4.45;1.42;;;8.00;99.90;;;;;;5055739;28;20028;-69
2022/08/06 04:03:49;;;;;;;5.07;1.70;;;8.10;99.90;;;;;;5056204;28;20040;-69
2022/08/06 04:06:18;;;;;;;2.78;1.00;;;8.00;99.90;;;;;;5055508;28;20021;-69
2022/08/06 04:08:44;;;;;;;2.72;1.45;;;8.00;99.90;;;;;;5055563;28;20025;-69
2022/08/06 04:11:11;;;;;;;1.70;1.27;;;8.00;99.90;;;;;;5054433;28;20016;-69
2022/08/06 04:13:38;;;;;;;4.47;1.33;;;8.10;99.90;;;;;;5055253;28;20047;-68
2022/08/06 04:16:04;;;;;;;4.32;1.45;;;8.10;99.90;;;;;;5037443;28;20036;-69
2022/08/06 04:18:40;;;;;;;9.30;1.50;;;8.10;99.90;;;;;;5055117;28;20028;-69
2022/08/06 04:21:18;;;;;;;2.53;1.42;;;8.10;99.90;;;;;;5050772;28;20056;-67
2022/08/06 04:23:43;;;;;;;6.30;1.90;;;8.20;99.90;;;;;;5035328;28;20057;-67
2022/08/06 04:26:13;;;;;;;9.98;1.90;;;8.30;99.90;;;;;;5035138;28;20539;-67
2022/08/06 04:28:42;;;;;;;4.90;2.15;;;8.30;99.90;;;;;;5049800;28;20116;-67
2022/08/06 04:31:09;;;;;;;14.25;2.22;;;8.50;99.90;;;;;;5037447;28;20027;-67
2022/08/06 04:33:35;;;;;;;3.67;1.95;;;8.70;99.90;;;;;;5042200;28;20112;-67
2022/08/06 04:36:05;;;;;;;9.05;3.00;;;9.00;99.90;;;;;;5035237;28;20445;-67
2022/08/06 04:38:31;;;;;;;14.23;3.70;;;9.20;99.90;;;;;;5051080;28;20044;-69
2022/08/06 04:40:58;;;;;;;7.10;2.40;;;9.50;99.90;;;;;;5054597;28;20059;-69
2022/08/06 04:43:23;;;;;;;4.55;2.33;;;9.80;99.90;;;;;;5052693;28;20438;-69
2022/08/06 04:45:50;;;;;;;8.07;2.10;;;10.00;99.90;;;;;;5054029;28;20049;-69
2022/08/06 04:48:16;;;;;;;10.20;2.08;;;10.00;99.90;;;;;;5054666;28;20056;-69
2022/08/06 04:50:42;;;;;;;4.38;2.35;;;10.20;99.90;;;;;;5054771;28;20021;-69
2022/08/06 04:53:10;;;;;;;10.25;2.45;;;10.20;99.90;;;;;;5055073;28;20029;-69
2022/08/06 04:55:36;;;;;;;9.65;2.20;;;10.30;99.90;;;;;;5054654;28;20032;-70
2022/08/06 04:58:04;;;;;;;8.30;3.15;;;10.40;99.90;;;;;;5054438;28;20025;-69
2022/08/06 05:00:35;;;;;;;4.03;2.70;;;10.50;99.90;;;;;;5053311;28;20063;-69
2022/08/06 05:03:00;;;;;;;11.52;2.50;;;10.70;99.90;;;;;;5054783;28;20044;-69
2022/08/06 05:05:28;;;;;;;9.85;2.25;;;10.80;99.90;;;;;;5054522;28;20469;-69
2022/08/06 05:07:57;;;;;;;7.22;1.80;;;11.00;99.90;;;;;;5054518;28;20465;-69
2022/08/06 05:10:28;;;;;;;8.82;2.40;;;11.10;99.90;;;;;;5054382;28;20039;-70
2022/08/06 05:12:56;;;;;;;4.45;1.95;;;11.20;99.90;;;;;;5054003;28;20021;-69
2022/08/06 05:15:38;;;;;;;4.55;1.83;;;11.40;99.90;;;;;;5054313;28;20051;-69
2022/08/06 05:18:08;;;;;;;13.60;2.45;;;11.50;99.90;;;;;;5052425;28;20442;-69
2022/08/06 05:20:38;;;;;;;14.10;1.80;;;11.60;99.90;;;;;;5054071;28;20029;-69
2022/08/06 05:23:11;;;;;;;15.00;2.05;;;11.70;99.90;;;;;;5054281;28;20029;-69
2022/08/06 05:25:36;;;;;;;8.15;1.80;;;11.90;99.90;;;;;;5036070;28;20119;-69
2022/08/06 05:28:05;;;;;;;11.75;1.60;;;12.10;99.90;;;;;;5053889;28;20067;-70
2022/08/06 05:30:30;;;;;;;10.55;2.58;;;12.30;99.90;;;;;;5053892;28;20025;-69
2022/08/06 05:32:56;;;;;;;10.45;1.42;;;12.40;99.90;;;;;;5053724;28;20020;-69
2022/08/06 05:35:21;;;;;;;20.15;2.35;;;12.60;99.90;;;;;;5052733;28;20036;-69
2022/08/06 05:37:47;;;;;;;12.77;2.00;;;12.80;99.90;;;;;;5053712;28;20096;-70
2022/08/06 05:40:12;;;;;;;11.65;2.08;;;13.00;99.90;;;;;;5053852;28;20354;-69
2022/08/06 05:42:38;;;;;;;5.00;1.52;;;13.20;99.90;;;;;;5053868;28;20017;-70
2022/08/06 05:45:06;;;;;;;8.50;2.58;;;13.50;99.90;;;;;;5053688;28;20029;-70
2022/08/06 05:47:37;;;;;;;4.97;2.22;;;13.70;99.90;;;;;;5054138;28;20377;-70
2022/08/06 05:50:09;;;;;;;7.93;2.28;;;14.00;99.90;;;;;;5053805;28;20032;-69
2022/08/06 05:52:42;;;;;;;6.47;2.03;;;14.20;99.90;;;;;;5051731;28;20041;-70
2022/08/06 05:55:22;;;;;;;9.63;3.15;;;14.50;99.90;;;;;;5054123;28;20082;-70
2022/08/06 05:57:52;;;;;;;8.20;2.63;;;14.70;99.90;;;;;;5053462;28;20029;-70
2022/08/06 06:00:20;;;;;;;8.82;2.33;;;15.00;99.90;;;;;;5053419;28;20032;-70
2022/08/06 06:02:48;;;;;;;7.60;2.17;;;15.10;99.90;;;;;;5053417;28;20091;-70
2022/08/06 06:05:15;;;;;;;8.88;2.53;;;15.10;99.90;;;;;;5053453;28;20488;-70
2022/08/06 06:07:41;;;;;;;6.60;2.90;;;15.00;99.90;;;;;;5050423;28;20032;-69
2022/08/06 06:10:07;;;;;;;7.60;2.92;;;14.90;99.90;;;;;;5053121;28;20057;-70
2022/08/06 06:12:34;;;;;;;8.55;2.88;;;14.70;99.90;;;;;;5053362;28;20100;-70
2022/08/06 06:15:02;;;;;;;9.98;3.67;;;14.60;99.90;;;;;;5053542;28;20378;-70
2022/08/06 06:18:00;;;;;;;14.38;3.53;;;14.60;99.90;;;;;;5049541;28;20446;-69
2022/08/06 06:20:35;;;;;;;6.78;2.90;;;14.70;99.90;;;;;;5047560;28;20025;-69
2022/08/06 06:23:08;;;;;;;17.27;3.65;;;14.90;99.90;;;;;;5052186;28;20057;-69
2022/08/06 06:25:46;;;;;;;9.03;3.17;;;15.00;99.90;;;;;;5057495;28;20025;-70
2022/08/06 06:28:29;;;;;;;8.95;4.15;;;15.20;99.90;;;;;;5039158;28;20294;-69
2022/08/06 06:31:13;;;;;;;11.77;4.40;;;15.40;99.90;;;;;;5057657;28;20056;-70
2022/08/06 06:33:49;;;;;;;10.75;4.30;;;15.60;99.90;;;;;;5056146;28;20083;-69
2022/08/06 06:36:28;;;;;;;14.00;5.38;;;15.60;99.90;;;;;;5056420;28;20408;-70
2022/08/06 06:39:08;;;;;;;11.73;4.63;;;15.80;99.90;;;;;;5056950;28;20449;-70
2022/08/06 06:41:42;;;;;;;8.98;4.53;;;15.90;99.90;;;;;;5057121;28;20021;-70
2022/08/06 06:44:07;;;;;;;19.27;5.45;;;16.00;99.90;;;;;;5057502;28;20539;-69
2022/08/06 06:46:53;;;;;;;14.30;5.25;;;16.10;99.90;;;;;;5057005;28;20037;-69
2022/08/06 06:49:27;;;;;;;14.75;4.93;;;16.20;99.90;;;;;;5057217;28;20021;-69
2022/08/06 06:51:58;;;;;;;14.77;5.43;;;16.30;99.90;;;;;;5054043;28;20477;-69
2022/08/06 06:54:32;;;;;;;7.93;5.50;;;16.40;99.90;;;;;;5057642;28;20040;-69
2022/08/06 06:57:00;;;;;;;11.32;6.25;;;16.50;99.90;;;;;;5056954;28;20025;-69
2022/08/06 06:59:35;;;;;;;16.77;6.07;;;16.60;99.90;;;;;;5056705;28;20029;-69
2022/08/06 07:02:03;;;;;;;16.08;6.07;;;16.80;99.90;;;;;;5057116;28;20528;-69
2022/08/06 07:04:30;;;;;;;12.25;7.15;;;16.80;99.90;;;;;;5055624;28;20025;-68
2022/08/06 07:06:58;;;;;;;10.82;6.47;;;16.80;99.90;;;;;;5055472;28;20020;-67
2022/08/06 07:09:27;;;;;;;13.80;5.97;;;17.00;99.90;;;;;;5056570;28;20048;-67
2022/08/06 07:11:55;;;;;;;11.77;5.47;;;16.90;99.90;;;;;;5056666;28;20495;-67
2022/08/06 07:14:23;;;;;;;9.10;5.35;;;16.90;99.90;;;;;;5056895;28;20036;-67
2022/08/06 07:16:55;;;;;;;11.63;6.57;;;17.00;99.90;;;;;;5056881;28;20036;-67
2022/08/06 07:19:23;;;;;;;10.32;5.00;;;17.00;99.90;;;;;;5054092;28;20512;-67
2022/08/06 07:21:49;;;;;;;14.68;6.30;;;16.90;99.90;;;;;;5056383;28;20086;-67
2022/08/06 07:24:17;;;;;;;20.25;6.90;;;16.80;99.90;;;;;;5054445;28;20103;-67
2022/08/06 07:26:44;;;;;;;11.90;6.82;;;16.90;99.90;;;;;;5080752;23;20025;-67
2022/08/06 07:29:12;;;;;;;19.20;7.13;;;17.20;99.90;;;;;;5055908;28;20139;-67
2022/08/06 07:31:40;;;;;;;15.85;7.07;;;17.50;99.90;;;;;;5056148;28;20032;-67
2022/08/06 07:34:06;;;;;;;15.95;6.53;;;17.50;99.90;;;;;;5055591;28;20065;-67
2022/08/06 07:36:35;;;;;;;11.82;6.65;;;17.70;99.90;;;;;;5054835;28;20029;-67
2022/08/06 07:39:10;;;;;;;11.40;6.05;;;17.50;99.90;;;;;;5054845;28;20055;-67
2022/08/06 07:41:36;;;;;;;12.15;6.05;;;17.20;99.90;;;;;;5056015;28;20025;-66
2022/08/06 07:44:05;;;;;;;10.95;6.45;;;17.00;99.90;;;;;;5056466;28;20107;-66
2022/08/06 07:46:38;;;;;;;14.35;6.78;;;17.10;99.90;;;;;;5055868;28;20025;-66
2022/08/06 07:49:06;;;;;;;15.18;5.55;;;17.40;99.90;;;;;;5055886;28;20385;-67
2022/08/06 07:51:38;;;;;;;17.77;6.15;;;17.70;99.90;;;;;;5054212;28;20032;-66
2022/08/06 07:54:06;;;;;;;9.98;5.80;;;18.10;99.90;;;;;;5055136;28;20024;-66
2022/08/06 07:56:35;;;;;;;10.98;6.03;;;18.50;99.90;;;;;;5055627;28;20025;-66
2022/08/06 07:59:03;;;;;;;11.15;6.13;;;18.20;99.90;;;;;;5055445;28;20483;-66
2022/08/06 08:01:28;;;;;;;12.48;6.50;;;17.60;99.90;;;;;;5053421;28;20051;-66
2022/08/06 08:06:39;;;;;;;10.98;6.32;;;16.80;99.90;;;;;;5055470;28;20147;-69
2022/08/06 08:09:09;;;;;;;12.95;6.53;;;16.90;99.90;;;;;;5055342;28;20088;-69
2022/08/06 08:11:40;;;;;;;15.32;6.55;;;17.20;99.90;;;;;;5056528;28;20021;-69
2022/08/06 08:14:08;;;;;;;11.88;5.70;;;17.60;99.90;;;;;;5055633;28;20052;-69
2022/08/06 08:16:34;;;;;;;9.25;5.68;;;17.80;99.90;;;;;;5055342;28;20025;-69
2022/08/06 08:19:00;;;;;;;10.70;5.65;;;18.00;99.90;;;;;;5036411;28;20025;-67
2022/08/06 08:21:27;;;;;;;8.23;4.45;;;18.30;99.90;;;;;;5055729;28;20021;-67
2022/08/06 08:23:53;;;;;;;13.23;5.47;;;18.40;99.90;;;;;;5055131;28;20025;-67
2022/08/06 08:26:19;;;;;;;8.23;4.72;;;18.00;99.90;;;;;;5055110;28;20025;-67
2022/08/06 08:28:44;;;;;;;7.78;5.13;;;17.90;99.90;;;;;;5054006;28;20021;-66
2022/08/06 08:31:13;;;;;;;13.00;5.60;;;18.20;99.90;;;;;;5054287;28;20043;-66
2022/08/06 08:33:39;;;;;;;7.80;4.95;;;18.30;99.90;;;;;;5053927;28;20477;-67
2022/08/06 08:36:05;;;;;;;11.27;5.13;;;18.30;99.90;;;;;;5055177;28;20029;-66
2022/08/06 08:38:32;;;;;;;11.93;5.35;;;18.60;99.90;;;;;;5054877;28;20029;-66
2022/08/06 08:41:23;;;;;;;9.88;5.68;;;18.90;99.90;;;;;;5054595;28;20025;-67
2022/08/06 08:44:05;;;;;;;8.68;4.75;;;18.70;99.90;;;;;;5054755;28;20545;-66
2022/08/06 08:46:40;;;;;;;17.20;7.03;;;18.10;99.90;;;;;;5054141;28;20384;-66
2022/08/06 08:49:06;;;;;;;11.65;7.25;;;17.70;99.90;;;;;;5053288;28;20104;-66
2022/08/06 08:51:34;;;;;;;13.43;6.88;;;17.20;99.90;;;;;;5054688;28;20031;-66
2022/08/06 08:54:05;;;;;;;17.38;6.45;;;17.20;99.90;;;;;;5054893;28;20048;-66
2022/08/06 08:56:32;;;;;;;12.15;5.55;;;17.70;99.90;;;;;;5054532;28;20021;-66
2022/08/06 08:58:58;;;;;;;11.23;6.47;;;18.20;99.90;;;;;;5054133;28;20493;-66
2022/08/06 09:01:24;;;;;;;16.02;5.97;;;18.50;99.90;;;;;;5054694;28;20100;-68
2022/08/06 09:03:50;;;;;;;13.77;6.10;;;18.90;99.90;;;;;;5052781;28;20025;-68
2022/08/06 09:06:16;;;;;;;13.60;6.20;;;18.60;99.90;;;;;;5053440;28;20025;-69
2022/08/06 09:08:44;;;;;;;11.48;5.70;;;18.20;99.90;;;;;;5036361;28;20064;-68
2022/08/06 09:11:10;;;;;;;10.32;5.28;;;18.20;99.90;;;;;;5054017;28;20548;-68
2022/08/06 09:13:35;;;;;;;15.68;4.95;;;18.60;99.90;;;;;;5054255;28;20087;-69
2022/08/06 09:16:01;;;;;;;14.27;4.95;;;18.90;99.90;;;;;;5053267;28;20035;-68
2022/08/06 09:18:28;;;;;;;11.50;5.05;;;19.20;99.90;;;;;;5049639;28;20017;-68
2022/08/06 09:20:54;;;;;;;13.82;5.30;;;19.10;99.90;;;;;;5053957;28;20032;-69
2022/08/06 09:23:20;;;;;;;10.15;5.15;;;19.30;99.90;;;;;;5053913;28;20035;-69
2022/08/06 09:25:50;;;;;;;9.40;4.95;;;19.30;99.90;;;;;;5054278;28;20465;-66
2022/08/06 09:28:32;;;;;;;7.57;4.13;;;19.00;99.90;;;;;;5053799;28;20103;-66
2022/08/06 09:30:58;;;;;;;10.40;4.97;;;19.20;99.90;;;;;;5052503;28;20108;-67
2022/08/06 09:33:24;;;;;;;8.00;4.30;;;19.40;99.90;;;;;;5052399;28;20166;-67
2022/08/06 09:36:20;;;;;;;17.75;5.75;;;19.50;99.90;;;;;;5053111;28;20437;-67
2022/08/06 09:38:50;;;;;;;9.95;4.93;;;19.90;99.90;;;;;;5033210;28;20555;-67
2022/08/06 09:41:17;;;;;;;8.32;4.65;;;20.00;99.90;;;;;;5053793;28;20029;-67
2022/08/06 09:43:46;;;;;;;10.93;4.75;;;19.70;99.90;;;;;;5053686;28;20025;-67
2022/08/06 09:46:12;;;;;;;12.80;4.85;;;19.70;99.90;;;;;;5053663;28;20021;-67
2022/08/06 09:48:59;;;;;;;12.40;5.30;;;20.00;99.90;;;;;;5052552;28;20391;-67
2022/08/06 09:51:25;;;;;;;15.98;4.93;;;19.70;99.90;;;;;;5053463;28;20013;-67
2022/08/06 09:53:53;;;;;;;12.13;5.38;;;19.30;99.90;;;;;;5053551;28;20088;-67
2022/08/06 09:56:18;;;;;;;10.90;5.57;;;19.00;99.90;;;;;;5053751;28;20029;-67
2022/08/06 09:58:45;;;;;;;8.95;5.15;;;19.40;99.90;;;;;;5053247;28;20028;-69
2022/08/06 10:01:19;;;;;;;13.02;5.65;;;20.10;99.90;;;;;;5052485;28;20040;-69
2022/08/06 10:03:46;;;;;;;10.73;6.00;;;20.50;99.90;;;;;;5053706;28;20021;-69
2022/08/06 10:06:20;;;;;;;7.45;4.40;;;20.20;99.90;;;;;;5035566;28;20435;-69
2022/08/06 10:08:47;;;;;;;13.93;5.10;;;19.60;99.90;;;;;;5053652;28;20100;-69
2022/08/06 10:11:13;;;;;;;15.93;5.63;;;19.40;99.90;;;;;;5053835;28;20029;-69
2022/08/06 10:13:45;;;;;;;12.05;5.40;;;19.80;99.90;;;;;;5053236;28;20052;-69
2022/08/06 10:16:19;;;;;;;15.52;4.85;;;20.30;99.90;;;;;;5053571;28;20037;-69
2022/08/06 10:18:47;;;;;;;11.25;4.25;;;20.40;99.90;;;;;;5052151;28;20063;-68
2022/08/06 10:21:18;;;;;;;6.43;3.60;;;20.40;99.90;;;;;;5035846;28;20380;-68
2022/08/06 10:23:49;;;;;;;8.88;4.38;;;20.40;99.90;;;;;;5053442;28;20025;-69
2022/08/06 10:26:18;;;;;;;6.15;3.22;;;20.70;99.90;;;;;;5053143;28;20061;-69
2022/08/06 10:28:46;;;;;;;7.90;3.83;;;20.50;99.90;;;;;;5052976;28;20052;-69
2022/08/06 10:31:14;;;;;;;5.75;3.42;;;20.20;99.90;;;;;;5053134;28;20039;-68
2022/08/06 10:33:43;;;;;;;11.48;3.53;;;20.30;99.90;;;;;;5052066;28;20025;-68
2022/08/06 10:36:12;;;;;;;8.60;3.20;;;20.70;99.90;;;;;;5053119;28;20029;-69
2022/08/06 10:38:42;;;;;;;9.82;3.60;;;20.90;99.90;;;;;;5035488;28;20029;-69
2022/08/06 10:41:10;;;;;;;7.20;3.10;;;20.30;99.90;;;;;;5052808;28;20021;-67
2022/08/06 10:43:37;;;;;;;6.22;3.13;;;20.10;99.90;;;;;;5049169;28;20025;-67
2022/08/06 10:46:15;;;;;;;8.82;3.88;;;20.20;99.90;;;;;;5034951;28;20029;-68
2022/08/06 10:48:43;;;;;;;6.07;2.67;;;20.50;99.90;;;;;;5034980;28;20101;-68
2022/08/06 10:51:10;;;;;;;4.40;2.30;;;20.80;99.90;;;;;;5052158;28;20476;-68
2022/08/06 10:53:40;;;;;;;5.70;2.38;;;21.20;99.90;;;;;;5053159;28;20103;-68
2022/08/06 10:56:09;;;;;;;8.98;2.17;;;21.30;99.90;;;;;;5053153;28;20021;-68
2022/08/06 10:58:36;;;;;;;14.15;3.10;;;21.70;99.90;;;;;;5051512;28;20025;-68
2022/08/06 11:01:29;;;;;;;5.90;2.92;;;21.90;99.90;;;;;;5053012;28;20037;-68
2022/08/06 11:04:17;;;;;;;11.75;2.97;;;21.90;99.90;;;;;;5052830;28;20036;-68
2022/08/06 11:07:00;;;;;;;10.65;4.20;;;21.10;99.90;;;;;;5052581;28;20013;-68
2022/08/06 11:09:31;;;;;;;15.93;5.00;;;20.30;99.90;;;;;;5053948;28;20158;-69
2022/08/06 11:12:05;;;;;;;8.75;5.13;;;19.30;99.90;;;;;;5055799;28;20029;-68
2022/08/06 11:14:37;;;;;;;4.88;2.95;;;18.90;99.90;;;;;;5036616;28;20116;-69
2022/08/06 11:17:03;;;;;;;10.95;3.67;;;18.80;99.90;;;;;;5048399;28;20112;-68
2022/08/06 11:19:43;;;;;;;13.45;5.57;;;18.80;99.90;;;;;;5056618;28;20108;-68
2022/08/06 11:22:36;;;;;;;14.32;5.97;;;18.90;99.90;;;;;;5056221;28;20042;-68
2022/08/06 11:25:05;;;;;;;8.40;5.63;;;19.50;99.90;;;;;;5056526;28;20037;-68
2022/08/06 11:27:50;;;;;;;13.27;6.20;;;20.10;99.90;;;;;;5056224;28;20056;-68
2022/08/06 11:30:16;;;;;;;17.05;6.22;;;20.40;99.90;;;;;;5055192;28;20025;-69
2022/08/06 11:32:47;;;;;;;11.10;5.50;;;20.30;99.90;;;;;;5056139;28;20091;-69
2022/08/06 11:35:35;;;;;;;12.52;5.60;;;19.90;99.90;;;;;;5056313;28;20029;-69
2022/08/06 11:38:02;;;;;;;10.43;5.97;;;19.40;99.90;;;;;;5056361;28;20029;-69
2022/08/06 11:40:48;;;;;;;14.55;5.88;;;18.90;99.90;;;;;;5055802;28;20086;-66
2022/08/06 11:44:04;;;;;;;10.05;5.45;;;18.70;99.90;;;;;;5055832;28;20048;-66
2022/08/06 11:46:35;;;;;;;14.63;6.35;;;18.60;99.90;;;;;;5055366;28;20036;-66
2022/08/06 11:49:03;;;;;;;11.43;5.93;;;18.70;99.90;;;;;;5055813;28;20099;-66
2022/08/06 11:51:57;;;;;;;9.57;4.90;;;19.10;99.90;;;;;;5055714;28;20033;-66
2022/08/06 11:54:27;;;;;;;11.68;3.80;;;19.80;99.90;;;;;;5056023;28;20041;-66
2022/08/06 11:57:04;;;;;;;8.15;4.55;;;20.70;99.90;;;;;;5055613;28;20066;-66
2022/08/06 11:59:34;;;;;;;11.93;4.55;;;21.20;99.90;;;;;;5055845;28;20108;-66
2022/08/06 12:02:04;;;;;;;9.57;4.78;;;21.60;99.90;;;;;;5053620;28;20021;-66
2022/08/06 12:04:38;;;;;;;11.57;3.95;;;21.80;99.90;;;;;;5055876;28;20017;-68
2022/08/06 12:07:27;;;;;;;8.40;4.22;;;21.40;99.90;;;;;;5055621;28;20018;-69
2022/08/06 12:10:05;;;;;;;7.95;4.43;;;20.80;99.90;;;;;;5055443;28;20033;-69
2022/08/06 12:12:45;;;;;;;10.93;4.15;;;20.00;99.90;;;;;;5055554;28;20017;-69
2022/08/06 12:15:20;;;;;;;9.07;4.93;;;19.50;99.90;;;;;;5055763;28;20033;-66
2022/08/06 12:17:54;;;;;;;11.98;4.38;;;19.20;99.90;;;;;;5053505;28;20031;-69
2022/08/06 12:20:32;;;;;;;14.88;5.05;;;18.90;99.90;;;;;;5055194;28;20385;-69
2022/08/06 12:22:59;;;;;;;8.52;4.53;;;19.00;99.90;;;;;;5055511;28;20032;-69
2022/08/06 12:25:35;;;;;;;13.90;4.55;;;19.50;99.90;;;;;;5055212;28;20021;-69
2022/08/06 12:28:01;;;;;;;20.25;4.85;;;19.80;99.90;;;;;;5055336;28;20031;-69
2022/08/06 12:30:39;;;;;;;9.80;4.15;;;20.00;99.90;;;;;;5055295;28;20025;-70
2022/08/06 12:33:06;;;;;;;10.50;4.00;;;20.20;99.90;;;;;;5055272;28;20029;-70
2022/08/06 12:35:32;;;;;;;6.55;2.20;;;21.10;99.90;;;;;;5054062;28;20056;-69
2022/08/06 12:37:58;;;;;;;6.25;2.50;;;21.70;99.90;;;;;;5054873;28;20055;-66
2022/08/06 12:40:23;;;;;;;5.20;2.20;;;22.00;99.90;;;;;;5055038;28;20568;-66
2022/08/06 12:42:50;;;;;;;5.57;2.50;;;22.40;99.90;;;;;;5055133;28;20017;-66
2022/08/06 12:45:23;;;;;;;5.10;2.03;;;22.10;99.90;;;;;;5054699;28;20441;-66
2022/08/06 12:48:12;;;;;;;4.63;2.30;;;22.30;99.90;;;;;;5054982;28;20040;-66
2022/08/06 12:50:41;;;;;;;4.95;2.70;;;22.90;99.90;;;;;;5053908;28;20048;-67
2022/08/06 12:53:08;;;;;;;7.40;2.60;;;23.60;99.90;;;;;;5054886;28;20052;-66
2022/08/06 12:55:40;;;;;;;5.22;2.50;;;23.80;99.90;;;;;;5054488;28;20094;-66
2022/08/06 12:58:06;;;;;;;9.38;2.30;;;23.20;99.90;;;;;;5054721;28;20029;-67
2022/08/06 13:00:32;;;;;;;6.88;2.60;;;22.70;99.90;;;;;;5054356;28;20033;-67
2022/08/06 13:02:58;;;;;;;6.00;1.98;;;21.80;99.90;;;;;;5053064;28;20068;-67
2022/08/06 13:05:27;;;;;;;5.47;2.25;;;20.90;99.90;;;;;;5053711;28;20024;-67